Rankin Inlet Airport
CYRT : now visible

Airfield :











YOU CAN JOIN US ON...

 
LOGIN :

Register | Disclaimer

   EN    FR    IT 

 









Legend :    VFR   Marginal VFR   IFR   Intensive IFR   Very Intensive IFR
Visi :
Ceiling :
>= 8 km
>= 3000ft
5 to 8 km
1000 to 3000 ft
1500m to 5 km
500 to 1000 ft
800 to 1500m
200 to 500 ft
< 800m
< 200 ft
Symbols :   Thunderstorms  Fog  Heavy snow  Heavy precipitations  Wind > 20 kt






- Airport Elevation : 94 ft
- IATA code : YRT


CYRT - Rankin Inlet

CURRENT METAR :
  • 162100Z 17011KT 15SM FEW076 FEW250 19/13 A2965 RMK AC1CI2 AC TR SLP043 DENSITY ALT 1000FT

EXPIRED METARs :
  • 162000Z 16008KT 15SM FEW250 21/12 A2966 RMK CI2 SLP046 DENSITY ALT 1200FT
  • 161900Z 17009KT 15SM FEW220 21/12 A2966 RMK CI2 SLP048 DENSITY ALT 1200FT

TAF TAF CYRT
Valid from the 16 at 18:00 until the 17 at 06:00 UTC


161740Z 1618/1706 19010KT P6SM SCT080 RMK NXT FCST BY 170000Z
CZEG FIR / North America



MET'MAP, your aeronautical weather chart ! - Copyright ORBIFLY December 2007 - Disclaimer

ORBIFLY MET'MAP TEAM :

Programming & Development : Alexandra Zaïnal
Original concept : Baudouin d'Aumeries
Technical & hardware support : Manuel Goepfert
Assistance : Marc-Olivier Méhu




SOURCES & CREDITS :

   NOAA       Earth
Advisory